KSGR/SGR METAR and TAF weather

Enter ICAO airport designator
Station Type Date Time Source
KSGR METAR 2020/10/29 16:53 UTC NOAA

KSGR 291653Z 30010G17KT 10SM OVC036 13/06 A3010 RMK AO2 SLP194 T01330056


Station Type Date Time Source
KSGR Decoded METAR 2020/10/29 16:53 UTC NOAA

SUGARLAND REGIONAL AIRPORT, TX, United States (KSGR) 29-37N 095-39W
Oct 29, 2020 - 12:53 PM EDT / 2020.10.29 1653 UTC
Wind: from the WNW (300 degrees) at 12 MPH (10 KT) gusting to 20 MPH (17 KT):0
Visibility: 10 mile(s):0
Sky conditions: overcast
Temperature: 55.9 F (13.3 C)
Dew Point: 42.1 F (5.6 C)
Relative Humidity: 59%
Pressure (altimeter): 30.1 in. Hg (1019 hPa)
ob: KSGR 291653Z 30010G17KT 10SM OVC036 13/06 A3010 RMK AO2 SLP194 T01330056
cycle: 17

Station Type Date Time Source
KSGR TAF 2020/10/29 12:22 UTC NOAA

TAF KSGR 291120Z 2912/3012 27008KT P6SM SKC
FM291400 30014KT P6SM SKC
FM291600 32015G25KT P6SM SKC
FM292100 33013G23KT P6SM SCT035
FM300100 34010KT P6SM FEW030
FM300900 36005KT P6SM FEW025

Example: see airport list